Time;durP1;ratioP1;P1;durP2;ratioP2;P2;SDS_P1;SDS_P2;PMS_P1;PMS_P2;Temp;Humidity;BMP_temperature;BMP_pressure;BME280_temperature;BME280_humidity;BME280_pressure;Samples;Min_cycle;Max_cycle;Signal;HPM_P1;HPM_P2
2021/08/25 00:03:07;;;;;;;7.85;3.95;;;15.50;92.30;;;;;;4368089;36;20075;-71
2021/08/25 00:07:10;;;;;;;8.48;4.72;;;15.50;92.60;;;;;;4348714;36;20038;-71
2021/08/25 00:11:12;;;;;;;9.15;5.53;;;15.40;92.70;;;;;;4348339;36;20637;-71
2021/08/25 00:15:14;;;;;;;16.25;5.32;;;15.40;92.80;;;;;;4367573;36;20035;-71
2021/08/25 00:19:16;;;;;;;8.57;5.03;;;15.40;92.80;;;;;;4347817;36;21600;-71
2021/08/25 00:23:18;;;;;;;9.85;6.25;;;15.30;92.90;;;;;;4368163;36;20041;-71
2021/08/25 00:27:20;;;;;;;9.13;5.93;;;15.30;93.00;;;;;;4350025;36;20030;-72
2021/08/25 00:31:22;;;;;;;13.05;6.07;;;15.20;93.00;;;;;;4350276;36;20460;-71
2021/08/25 00:35:25;;;;;;;11.52;6.15;;;15.20;93.10;;;;;;4368115;36;20038;-72
2021/08/25 00:39:27;;;;;;;9.65;5.80;;;15.20;93.20;;;;;;4349143;36;20579;-71
2021/08/25 00:43:29;;;;;;;;;;;15.20;93.30;;;;;;4351006;31;20685;-71
2021/08/25 00:47:33;;;;;;;9.10;5.67;;;15.20;92.10;;;;;;4367954;36;20336;-72
2021/08/25 00:51:35;;;;;;;7.88;5.65;;;15.10;93.00;;;;;;4348806;36;20587;-71
2021/08/25 00:55:41;;;;;;;9.98;5.43;;;15.10;93.40;;;;;;4349269;36;20034;-71
2021/08/25 00:59:44;;;;;;;11.48;5.80;;;15.10;93.30;;;;;;4367616;36;20067;-71
2021/08/25 01:04:01;;;;;;;7.38;5.20;;;15.10;93.40;;;;;;4349254;36;20042;-71
2021/08/25 01:08:04;;;;;;;8.05;4.93;;;15.00;93.40;;;;;;4350424;36;20094;-71
2021/08/25 01:12:12;;;;;;;8.65;5.30;;;15.10;93.40;;;;;;4367289;36;20034;-71
2021/08/25 01:16:14;;;;;;;9.48;5.15;;;15.00;93.50;;;;;;4349494;36;20042;-71
2021/08/25 01:20:19;;;;;;;9.07;5.00;;;15.00;93.60;;;;;;4349132;36;20112;-71
2021/08/25 01:24:22;;;;;;;7.57;5.20;;;14.90;93.60;;;;;;4366738;36;20069;-71
2021/08/25 01:28:28;;;;;;;8.20;4.85;;;15.00;93.70;;;;;;4349055;36;20030;-71
2021/08/25 01:32:34;;;;;;;7.60;4.97;;;14.90;93.80;;;;;;4367476;36;21035;-72
2021/08/25 01:36:36;;;;;;;8.02;5.10;;;14.90;93.90;;;;;;4349574;36;20038;-72
2021/08/25 01:40:38;;;;;;;7.88;4.93;;;14.90;93.80;;;;;;4350523;36;20925;-72
2021/08/25 01:44:40;;;;;;;6.57;4.35;;;14.90;93.80;;;;;;4367115;36;20753;-71
2021/08/25 01:48:41;;;;;;;7.75;5.18;;;14.90;93.80;;;;;;4350167;36;20122;-72
2021/08/25 01:52:43;;;;;;;8.73;5.55;;;14.90;94.10;;;;;;4350426;36;20036;-73
2021/08/25 01:56:45;;;;;;;;;;;14.90;93.80;;;;;;4367624;36;20068;-71
2021/08/25 02:00:47;;;;;;;6.83;5.43;;;14.80;92.50;;;;;;4348559;36;19961;-71
2021/08/25 02:04:49;;;;;;;;;;;14.80;93.60;;;;;;4349033;36;20042;-71
2021/08/25 02:08:52;;;;;;;8.33;5.33;;;14.80;92.50;;;;;;4368773;36;20436;-71
2021/08/25 02:12:54;;;;;;;9.82;6.07;;;14.80;93.50;;;;;;4347291;36;20650;-71
2021/08/25 02:16:56;;;;;;;10.93;5.57;;;14.80;93.80;;;;;;4347891;36;20063;-71
2021/08/25 02:20:59;;;;;;;8.45;4.82;;;14.80;93.90;;;;;;4365886;36;20109;-71
2021/08/25 02:25:00;;;;;;;9.20;5.65;;;14.80;94.00;;;;;;4347695;36;20034;-71
2021/08/25 02:29:02;;;;;;;;;;;14.80;94.10;;;;;;4349131;36;20042;-71
2021/08/25 02:33:04;;;;;;;8.30;6.10;;;14.70;92.80;;;;;;4366382;36;19965;-71
2021/08/25 02:37:07;;;;;;;7.85;5.57;;;14.70;93.70;;;;;;4348095;36;20528;-71
2021/08/25 02:41:12;;;;;;;8.48;5.47;;;14.70;94.00;;;;;;4348970;36;20038;-71
2021/08/25 02:45:14;;;;;;;7.72;5.60;;;14.70;94.10;;;;;;4366987;36;20038;-71
2021/08/25 02:49:16;;;;;;;7.97;5.43;;;14.70;94.20;;;;;;4348747;36;20037;-71
2021/08/25 02:53:20;;;;;;;8.07;5.28;;;14.70;94.40;;;;;;4368923;36;20030;-72
2021/08/25 02:57:22;;;;;;;11.40;5.60;;;14.80;94.40;;;;;;4351021;36;20511;-72
2021/08/25 03:01:23;;;;;;;7.82;5.50;;;14.70;94.40;;;;;;4348574;36;21057;-72
2021/08/25 03:05:26;;;;;;;9.75;5.70;;;14.60;94.40;;;;;;4370046;36;20055;-72
2021/08/25 03:09:28;;;;;;;;;;;14.60;94.50;;;;;;4349978;36;20042;-71
2021/08/25 03:13:30;;;;;;;7.40;5.80;;;14.60;93.30;;;;;;4351263;36;19951;-71
2021/08/25 03:17:32;;;;;;;7.28;5.05;;;14.60;94.20;;;;;;4368686;36;20034;-71
2021/08/25 03:21:33;;;;;;;6.20;4.32;;;14.50;94.40;;;;;;4351123;36;20062;-71
2021/08/25 03:25:35;;;;;;;5.80;4.15;;;14.50;94.60;;;;;;4350480;36;20106;-71
2021/08/25 03:29:37;;;;;;;7.88;4.75;;;14.40;94.70;;;;;;4368990;36;20034;-71
2021/08/25 03:33:39;;;;;;;10.48;5.45;;;14.40;94.90;;;;;;4351535;36;20062;-71
2021/08/25 03:37:41;;;;;;;;;;;14.40;95.10;;;;;;4351518;36;20556;-72
2021/08/25 03:41:43;;;;;;;6.85;4.28;;;14.30;93.60;;;;;;4369886;36;19974;-71
2021/08/25 03:45:45;;;;;;;8.27;4.50;;;14.30;94.80;;;;;;4350847;36;20115;-72
2021/08/25 03:49:47;;;;;;;7.00;4.20;;;14.30;95.10;;;;;;4351033;36;20046;-71
2021/08/25 03:53:49;;;;;;;5.97;4.10;;;14.30;95.20;;;;;;4368568;36;21186;-72
2021/08/25 03:57:51;;;;;;;4.45;3.10;;;14.40;95.50;;;;;;4352060;36;20038;-72
2021/08/25 04:01:53;;;;;;;7.65;3.47;;;14.30;95.50;;;;;;4350244;36;20034;-72
2021/08/25 04:05:55;;;;;;;5.28;3.55;;;14.30;95.50;;;;;;4369235;36;20035;-72
2021/08/25 04:09:57;;;;;;;6.00;3.20;;;14.30;95.90;;;;;;4351874;36;20583;-72
2021/08/25 04:14:00;;;;;;;7.93;3.10;;;14.30;96.00;;;;;;4349244;36;22055;-71
2021/08/25 04:18:02;;;;;;;7.47;2.33;;;14.30;96.00;;;;;;4370432;36;20579;-72
2021/08/25 04:22:04;;;;;;;;;;;14.30;96.00;;;;;;4350974;36;20034;-71
2021/08/25 04:26:06;;;;;;;6.87;1.97;;;14.30;95.60;;;;;;4349482;36;20427;-71
2021/08/25 04:30:08;;;;;;;;;;;14.30;95.90;;;;;;4368944;36;20090;-71
2021/08/25 04:34:10;;;;;;;4.93;1.95;;;14.30;94.80;;;;;;4348749;36;19956;-71
2021/08/25 04:38:12;;;;;;;;;;;14.30;96.00;;;;;;4349983;36;20046;-70
2021/08/25 04:42:14;;;;;;;5.07;1.63;;;14.30;95.30;;;;;;4367100;36;20434;-71
2021/08/25 04:46:17;;;;;;;4.45;1.55;;;14.40;96.00;;;;;;4348543;36;20326;-71
2021/08/25 04:50:19;;;;;;;5.70;1.42;;;14.30;95.90;;;;;;4366436;36;20034;-71
2021/08/25 04:54:21;;;;;;;;;;;14.40;96.20;;;;;;4350206;36;20911;-71
2021/08/25 04:58:23;;;;;;;8.57;1.50;;;14.40;95.20;;;;;;4350905;36;20384;-71
2021/08/25 05:02:25;;;;;;;6.18;1.60;;;14.50;95.80;;;;;;4365595;36;20536;-71
2021/08/25 05:06:27;;;;;;;;;;;14.50;95.90;;;;;;4349047;36;20034;-71
2021/08/25 05:10:29;;;;;;;4.20;1.55;;;14.50;94.80;;;;;;4348649;36;20462;-71
2021/08/25 05:14:30;;;;;;;5.10;1.50;;;14.60;95.70;;;;;;4367536;36;20041;-71
2021/08/25 05:18:32;;;;;;;10.23;1.75;;;14.60;95.80;;;;;;4349304;36;20157;-71
2021/08/25 05:22:35;;;;;;;5.18;1.50;;;14.60;95.70;;;;;;4350449;36;20605;-71
2021/08/25 05:26:37;;;;;;;2.92;1.13;;;14.70;95.60;;;;;;4365975;36;20020;-71
2021/08/25 05:30:39;;;;;;;;;;;14.70;95.90;;;;;;4350729;36;20026;-71
2021/08/25 05:34:41;;;;;;;6.57;1.58;;;14.80;95.10;;;;;;4348638;36;19954;-71
2021/08/25 05:38:42;;;;;;;5.80;1.42;;;14.80;95.70;;;;;;4366102;36;20034;-71
2021/08/25 05:42:45;;;;;;;;;;;14.80;95.60;;;;;;4349489;36;20095;-71
2021/08/25 05:46:47;;;;;;;3.63;1.17;;;14.90;95.80;;;;;;4347791;36;20039;-71
2021/08/25 05:50:50;;;;;;;5.60;1.33;;;14.90;96.00;;;;;;4367010;36;20535;-71
2021/08/25 05:54:51;;;;;;;6.85;1.08;;;15.00;96.10;;;;;;4347608;36;20040;-72
2021/08/25 05:58:53;;;;;;;;;;;15.00;96.20;;;;;;4350755;36;20038;-72
2021/08/25 06:02:55;;;;;;;4.38;1.00;;;15.00;96.20;;;;;;4367423;36;19950;-72
2021/08/25 06:06:59;;;;;;;5.75;1.85;;;15.10;96.10;;;;;;4350056;36;20149;-71
2021/08/25 06:11:01;;;;;;;;;;;15.10;96.50;;;;;;4351200;36;20035;-72
2021/08/25 06:15:03;;;;;;;4.40;1.48;;;15.20;95.80;;;;;;4366926;36;19978;-72
2021/08/25 06:19:05;;;;;;;6.00;1.50;;;15.20;96.40;;;;;;4354263;36;20544;-71
2021/08/25 06:23:07;;;;;;;6.18;1.50;;;15.20;96.80;;;;;;4349319;36;20049;-71
2021/08/25 06:27:09;;;;;;;10.38;2.00;;;15.30;97.00;;;;;;4368260;36;20085;-72
2021/08/25 06:31:11;;;;;;;6.70;2.20;;;15.30;97.30;;;;;;4349224;36;20058;-71
2021/08/25 06:35:13;;;;;;;7.50;2.33;;;15.30;97.30;;;;;;4349342;36;20991;-71
2021/08/25 06:39:15;;;;;;;7.60;2.42;;;15.30;97.90;;;;;;4366975;36;20056;-72
2021/08/25 06:43:17;;;;;;;8.95;2.92;;;15.40;97.70;;;;;;4347701;36;20030;-72
2021/08/25 06:47:19;;;;;;;;;;;15.40;98.10;;;;;;4368222;36;20104;-72
2021/08/25 06:51:21;;;;;;;11.60;2.90;;;15.40;97.70;;;;;;4348272;36;20465;-72
2021/08/25 06:55:23;;;;;;;;;;;15.40;98.00;;;;;;4350321;36;20430;-71
2021/08/25 06:59:25;;;;;;;9.27;2.67;;;15.50;97.00;;;;;;4367095;36;19957;-71
2021/08/25 07:03:27;;;;;;;13.10;3.55;;;15.50;97.70;;;;;;4349213;36;20090;-74
2021/08/25 07:07:29;;;;;;;;;;;15.50;98.20;;;;;;4351052;36;20049;-75
2021/08/25 07:11:31;;;;;;;7.73;3.00;;;15.60;97.80;;;;;;4369080;36;20037;-73
2021/08/25 08:48:56;;;;;;;7.85;2.97;;;16.40;99.50;;;;;;4471566;36;25125;-76
2021/08/25 08:52:59;;;;;;;8.55;3.28;;;16.40;99.40;;;;;;4997698;36;20034;-76
2021/08/25 08:57:00;;;;;;;;;;;16.50;99.40;;;;;;4844387;36;20034;-75
2021/08/25 09:01:02;;;;;;;6.38;3.42;;;16.50;98.90;;;;;;5080521;36;19946;-73
2021/08/25 09:05:14;;;;;;;6.05;2.50;;;16.40;99.00;;;;;;4433608;36;20034;-74
2021/08/25 09:09:17;;;;;;;8.82;3.28;;;16.40;99.30;;;;;;4352251;36;20082;-77
2021/08/25 09:13:18;;;;;;;6.97;2.85;;;16.40;99.40;;;;;;4655880;36;20736;-75
2021/08/25 09:17:30;;;;;;;;;;;16.40;99.70;;;;;;4371736;36;20027;-75
2021/08/25 09:21:38;;;;;;;6.43;2.20;;;16.30;99.40;;;;;;4389171;36;20468;-76
2021/08/25 09:25:42;;;;;;;6.03;2.60;;;16.30;99.80;;;;;;4424988;36;20589;-73
2021/08/25 09:29:57;;;;;;;5.10;2.60;;;16.40;99.90;;;;;;4369994;36;20034;-75
2021/08/25 09:33:59;;;;;;;6.07;2.75;;;16.40;99.90;;;;;;4352863;36;20156;-75
2021/08/25 09:38:03;;;;;;;8.25;2.83;;;16.30;99.90;;;;;;4388512;36;20585;-74
2021/08/25 09:42:05;;;;;;;6.45;2.83;;;16.30;99.90;;;;;;4351673;36;20038;-74
2021/08/25 09:46:18;;;;;;;;;;;16.30;99.90;;;;;;4355445;36;20037;-71
2021/08/25 09:50:24;;;;;;;;;;;16.20;99.60;;;;;;4369655;36;19947;-74
2021/08/25 09:54:26;;;;;;;5.90;2.20;;;16.20;99.70;;;;;;4352247;36;20440;-75
2021/08/25 09:58:28;;;;;;;6.20;2.25;;;16.20;99.90;;;;;;4347475;36;20030;-73
2021/08/25 10:02:30;;;;;;;8.18;2.42;;;16.40;99.90;;;;;;4371243;36;20090;-75
2021/08/25 10:06:36;;;;;;;8.82;2.92;;;16.50;99.90;;;;;;4415281;36;20101;-75
2021/08/25 10:10:38;;;;;;;7.95;2.40;;;16.50;99.90;;;;;;4350734;36;20027;-72
2021/08/25 10:14:40;;;;;;;7.45;2.38;;;16.50;99.90;;;;;;4364094;36;20082;-75
2021/08/25 10:18:42;;;;;;;6.07;2.75;;;16.50;99.90;;;;;;4346543;36;20045;-74
2021/08/25 10:22:47;;;;;;;6.50;3.10;;;16.60;99.90;;;;;;4351828;36;20034;-70
2021/08/25 10:26:58;;;;;;;8.43;3.05;;;16.60;99.90;;;;;;4362757;36;20034;-73
2021/08/25 10:31:00;;;;;;;3.65;2.28;;;16.60;99.90;;;;;;4346171;36;20039;-72
2021/08/25 10:35:11;;;;;;;7.18;2.67;;;16.60;99.90;;;;;;4359532;36;20034;-73
2021/08/25 10:39:33;;;;;;;7.38;2.70;;;16.70;99.90;;;;;;4345489;36;20754;-73
2021/08/25 10:43:40;;;;;;;6.28;2.78;;;16.60;99.90;;;;;;4346462;36;20038;-73
2021/08/25 10:48:02;;;;;;;6.68;3.28;;;16.60;99.90;;;;;;4363820;31;20544;-72
2021/08/25 10:52:14;;;;;;;6.72;3.35;;;16.70;99.90;;;;;;4344357;36;20042;-73
2021/08/25 10:56:26;;;;;;;9.47;3.27;;;16.70;99.90;;;;;;4362623;36;20608;-75
2021/08/25 11:00:34;;;;;;;7.47;3.10;;;16.60;99.90;;;;;;4342696;36;20038;-72
2021/08/25 11:04:37;;;;;;;6.97;3.28;;;16.70;99.90;;;;;;4344702;36;20034;-73
2021/08/25 11:08:38;;;;;;;9.23;3.17;;;16.70;99.90;;;;;;4398229;36;20050;-73
2021/08/25 11:12:45;;;;;;;12.57;5.20;;;16.70;99.90;;;;;;4344171;36;20035;-73
2021/08/25 11:16:48;;;;;;;8.80;4.05;;;16.80;99.90;;;;;;4345132;36;20041;-75
2021/08/25 11:21:05;;;;;;;8.55;3.22;;;16.80;99.90;;;;;;4364172;31;20540;-74
2021/08/25 11:25:08;;;;;;;11.20;3.03;;;16.80;99.90;;;;;;4345453;36;20542;-74
2021/08/25 11:29:22;;;;;;;12.77;4.75;;;16.90;99.90;;;;;;4363459;36;20042;-73
2021/08/25 11:33:24;;;;;;;7.68;3.47;;;16.90;99.90;;;;;;4343983;36;20046;-73
2021/08/25 11:37:26;;;;;;;10.90;3.40;;;16.90;99.90;;;;;;4344626;36;20090;-74
2021/08/25 11:41:43;;;;;;;12.25;3.10;;;16.90;99.90;;;;;;4363730;36;20038;-74
2021/08/25 11:45:51;;;;;;;11.02;3.22;;;16.90;99.90;;;;;;4345176;36;20035;-73
2021/08/25 11:49:56;;;;;;;10.65;3.95;;;16.90;99.90;;;;;;4343932;36;20038;-73
2021/08/25 11:54:13;;;;;;;7.38;3.00;;;17.00;99.90;;;;;;4363635;36;20031;-75
2021/08/25 11:58:24;;;;;;;9.30;3.13;;;17.10;99.90;;;;;;4345876;36;20795;-75
2021/08/25 12:02:26;;;;;;;5.25;2.25;;;17.20;99.90;;;;;;4363667;36;20421;-76
2021/08/25 12:06:49;;;;;;;10.65;2.25;;;17.10;99.90;;;;;;4345794;36;20085;-76
2021/08/25 12:11:04;;;;;;;;;;;17.20;99.90;;;;;;4346972;36;20046;-75
2021/08/25 12:15:06;;;;;;;5.63;1.75;;;17.20;99.90;;;;;;4363332;36;19947;-76
2021/08/25 12:19:19;;;;;;;6.38;2.00;;;17.20;99.90;;;;;;4344786;36;20086;-75
2021/08/25 12:23:24;;;;;;;10.88;2.25;;;17.30;99.90;;;;;;4363725;36;20020;-74
2021/08/25 12:27:43;;;;;;;4.90;1.60;;;17.30;99.90;;;;;;4346053;36;20462;-75
2021/08/25 12:32:02;;;;;;;7.40;2.00;;;17.30;99.90;;;;;;4346884;36;20042;-72
2021/08/25 12:36:22;;;;;;;3.42;1.58;;;17.20;99.90;;;;;;4349803;36;20037;-72
2021/08/25 12:40:24;;;;;;;3.20;1.10;;;17.30;99.90;;;;;;4345996;36;20034;-75
2021/08/25 12:44:26;;;;;;;;;;;17.20;99.90;;;;;;4364347;36;20693;-75
2021/08/25 12:48:28;;;;;;;8.65;2.20;;;17.20;99.90;;;;;;4349282;36;20050;-75
2021/08/25 12:52:30;;;;;;;;;;;17.20;99.90;;;;;;4346523;36;20161;-74
2021/08/25 12:56:31;;;;;;;10.25;3.13;;;17.20;99.90;;;;;;4364422;36;19954;-74
2021/08/25 13:00:38;;;;;;;8.60;2.72;;;17.20;99.90;;;;;;4344875;36;20482;-75
2021/08/25 13:04:40;;;;;;;8.52;3.08;;;17.20;99.90;;;;;;4345968;36;20041;-74
2021/08/25 13:08:42;;;;;;;9.88;3.22;;;17.20;99.90;;;;;;4363355;36;20037;-75
2021/08/25 13:12:44;;;;;;;;;;;17.20;99.90;;;;;;4345645;36;20031;-73
2021/08/25 13:16:47;;;;;;;11.07;2.80;;;17.20;99.90;;;;;;4347365;36;20523;-71
2021/08/25 13:20:51;;;;;;;7.45;3.42;;;17.20;99.90;;;;;;4365962;36;20031;-75
2021/08/25 13:24:56;;;;;;;8.93;2.80;;;17.20;99.90;;;;;;4346703;36;20077;-73
2021/08/25 13:28:58;;;;;;;9.88;2.72;;;17.20;99.90;;;;;;4347584;36;20541;-73
2021/08/25 13:33:00;;;;;;;10.63;2.90;;;17.20;99.90;;;;;;4365490;36;20061;-71
2021/08/25 13:37:02;;;;;;;9.55;3.10;;;17.10;99.90;;;;;;4347778;36;20435;-73
2021/08/25 13:41:05;;;;;;;;;;;17.10;99.90;;;;;;4367648;36;20039;-71
2021/08/25 13:45:08;;;;;;;8.32;3.20;;;17.00;99.90;;;;;;4349043;36;20395;-72
2021/08/25 13:49:10;;;;;;;11.10;3.35;;;17.00;99.90;;;;;;4347533;36;20585;-72
2021/08/25 13:53:11;;;;;;;;;;;17.00;99.90;;;;;;4364318;36;20034;-71
2021/08/25 13:57:13;;;;;;;9.13;3.03;;;17.00;99.90;;;;;;4344325;36;19956;-71
2021/08/25 14:01:15;;;;;;;8.18;2.47;;;17.10;99.90;;;;;;4344543;36;20041;-71
2021/08/25 14:05:18;;;;;;;6.38;2.20;;;17.00;99.90;;;;;;4365282;36;20036;-71
2021/08/25 14:09:20;;;;;;;5.65;1.98;;;17.00;99.90;;;;;;4346284;36;20467;-73
2021/08/25 14:13:22;;;;;;;4.65;1.55;;;17.20;99.90;;;;;;4345582;36;20127;-73
2021/08/25 14:17:24;;;;;;;4.88;2.00;;;17.10;99.90;;;;;;4364041;36;20038;-73
2021/08/25 14:21:26;;;;;;;7.50;2.10;;;17.10;99.90;;;;;;4345381;36;20038;-75
2021/08/25 14:25:28;;;;;;;6.70;2.05;;;17.10;99.90;;;;;;4346902;36;20038;-74
2021/08/25 14:29:30;;;;;;;;;;;17.10;99.90;;;;;;4364142;36;20039;-74
2021/08/25 14:33:32;;;;;;;7.00;1.88;;;17.10;99.90;;;;;;4345907;36;20011;-75
2021/08/25 14:37:35;;;;;;;4.93;1.98;;;17.10;99.90;;;;;;4345955;36;20406;-75
2021/08/25 14:41:37;;;;;;;6.15;2.20;;;17.20;99.90;;;;;;4362428;36;20472;-74
2021/08/25 14:45:39;;;;;;;6.55;2.30;;;17.20;99.90;;;;;;4344931;36;20038;-76
2021/08/25 14:49:41;;;;;;;8.25;2.15;;;17.20;99.90;;;;;;4350830;36;20616;-72
2021/08/25 14:53:43;;;;;;;;;;;17.30;99.90;;;;;;4371398;36;20034;-73
2021/08/25 14:57:45;;;;;;;6.55;2.40;;;17.30;99.90;;;;;;4350267;36;19950;-74
2021/08/25 15:01:47;;;;;;;;;;;17.30;99.90;;;;;;4351420;36;20044;-73
2021/08/25 15:05:49;;;;;;;9.57;2.63;;;17.30;99.90;;;;;;4366406;36;19961;-75
2021/08/25 15:09:51;;;;;;;;;;;17.30;99.90;;;;;;4340586;36;20026;-75
2021/08/25 15:13:53;;;;;;;10.13;2.55;;;17.30;99.90;;;;;;4344161;36;19947;-75
2021/08/25 15:17:55;;;;;;;8.57;2.67;;;17.40;99.90;;;;;;4367931;36;20139;-74
2021/08/25 15:21:58;;;;;;;14.95;3.15;;;17.40;99.90;;;;;;4345783;36;20033;-75
2021/08/25 15:26:00;;;;;;;11.05;2.60;;;17.40;99.90;;;;;;4382118;36;20472;-75
2021/08/25 15:30:03;;;;;;;10.65;3.47;;;17.50;99.90;;;;;;4364039;36;20034;-75
2021/08/25 15:34:06;;;;;;;12.48;2.85;;;17.50;99.90;;;;;;4352402;36;20046;-75
2021/08/25 15:38:08;;;;;;;10.45;2.20;;;17.50;99.90;;;;;;4362493;36;20444;-75
2021/08/25 15:42:10;;;;;;;;;;;17.60;99.90;;;;;;4351553;36;20631;-73
2021/08/25 15:46:12;;;;;;;11.23;3.40;;;17.60;99.90;;;;;;4352327;36;19953;-74
2021/08/25 15:50:14;;;;;;;;;;;17.70;99.90;;;;;;4371522;36;20464;-75
2021/08/25 15:54:16;;;;;;;17.02;3.15;;;17.80;99.90;;;;;;4352292;36;19952;-76
2021/08/25 15:58:18;;;;;;;12.57;2.72;;;17.80;99.90;;;;;;4344736;36;20030;-75
2021/08/25 16:02:20;;;;;;;13.85;3.08;;;17.80;99.90;;;;;;4362757;36;20041;-76
2021/08/25 16:06:23;;;;;;;10.15;3.03;;;17.90;99.90;;;;;;4344894;36;20031;-74
2021/08/25 16:10:31;;;;;;;;;;;17.90;99.40;;;;;;4353824;36;20034;-74
2021/08/25 16:14:33;;;;;;;10.32;2.53;;;17.80;99.00;;;;;;4363160;36;19953;-75
2021/08/25 16:18:38;;;;;;;9.60;3.00;;;17.80;99.50;;;;;;4352561;36;20034;-76
2021/08/25 16:22:40;;;;;;;8.80;2.42;;;17.70;99.50;;;;;;4348180;36;20506;-76
2021/08/25 16:26:42;;;;;;;13.90;2.72;;;17.70;99.10;;;;;;4365010;36;20034;-77
2021/08/25 16:30:44;;;;;;;;;;;17.70;99.10;;;;;;4347038;36;20049;-75
2021/08/25 16:34:46;;;;;;;10.65;2.85;;;17.60;98.90;;;;;;4352305;36;19946;-77
2021/08/25 16:38:48;;;;;;;;;;;17.50;99.10;;;;;;4368022;36;20030;-76
2021/08/25 16:42:50;;;;;;;15.82;3.67;;;17.50;99.10;;;;;;4345607;36;20459;-75
2021/08/25 16:46:52;;;;;;;13.52;3.03;;;17.50;98.80;;;;;;4343128;36;20034;-75
2021/08/25 16:50:54;;;;;;;;;;;17.50;98.90;;;;;;4362072;36;20045;-74
2021/08/25 16:54:57;;;;;;;19.83;3.33;;;17.40;99.00;;;;;;4342486;36;20432;-74
2021/08/25 16:59:00;;;;;;;15.30;3.40;;;17.30;98.70;;;;;;4348668;36;20405;-74
2021/08/25 17:03:02;;;;;;;20.10;3.63;;;17.40;98.90;;;;;;4360914;36;20034;-74
2021/08/25 17:07:04;;;;;;;15.82;3.53;;;17.30;98.80;;;;;;4341723;36;20034;-74
2021/08/25 17:11:06;;;;;;;15.73;3.20;;;17.30;98.90;;;;;;4360733;36;20034;-74
2021/08/25 17:15:08;;;;;;;;;;;17.30;99.00;;;;;;4349817;36;20035;-71
2021/08/25 17:19:12;;;;;;;16.75;3.50;;;17.20;99.00;;;;;;4352105;36;20654;-74
2021/08/25 17:23:13;;;;;;;19.67;3.80;;;17.20;98.90;;;;;;4360647;36;20050;-74
2021/08/25 17:27:16;;;;;;;15.30;3.45;;;17.10;98.80;;;;;;4342191;36;20755;-74
2021/08/25 17:31:18;;;;;;;19.05;4.05;;;17.10;98.70;;;;;;4377976;36;20959;-74
2021/08/25 17:35:20;;;;;;;;;;;17.00;98.60;;;;;;4366232;36;20395;-75
2021/08/25 17:39:22;;;;;;;23.25;4.22;;;16.90;98.80;;;;;;4344164;36;19957;-75
2021/08/25 17:43:24;;;;;;;19.02;3.97;;;17.00;98.60;;;;;;4342959;36;20031;-76
2021/08/25 17:47:26;;;;;;;17.05;3.25;;;16.90;98.70;;;;;;4362773;36;20038;-75
2021/08/25 17:51:28;;;;;;;;;;;16.90;98.80;;;;;;4339783;36;20559;-73
2021/08/25 17:55:30;;;;;;;24.45;4.32;;;16.80;98.80;;;;;;4353600;36;19951;-75
2021/08/25 17:59:32;;;;;;;;;;;16.70;98.50;;;;;;4370830;36;20161;-73
2021/08/25 18:03:35;;;;;;;23.33;4.50;;;16.70;98.70;;;;;;4344641;36;20045;-75
2021/08/25 18:07:37;;;;;;;16.13;3.60;;;16.60;98.60;;;;;;4345211;36;20137;-74
2021/08/25 18:11:38;;;;;;;18.70;4.47;;;16.60;98.50;;;;;;4363497;36;20030;-75
2021/08/25 18:15:40;;;;;;;22.05;4.72;;;16.50;98.80;;;;;;4345389;36;21149;-75
2021/08/25 18:19:42;;;;;;;25.45;4.78;;;16.40;98.50;;;;;;4345231;36;20030;-75
2021/08/25 18:23:44;;;;;;;21.20;3.72;;;15.80;98.40;;;;;;4363452;36;20038;-75
2021/08/25 18:27:46;;;;;;;;;;;16.30;98.70;;;;;;4346092;36;20042;-74
2021/08/25 18:31:52;;;;;;;20.17;4.87;;;16.10;98.60;;;;;;4346413;36;19955;-75
2021/08/25 18:35:54;;;;;;;21.67;4.30;;;16.10;98.90;;;;;;4363801;36;20489;-74
2021/08/25 18:40:11;;;;;;;30.48;4.28;;;16.00;99.00;;;;;;4345319;36;20030;-72
2021/08/25 18:44:14;;;;;;;21.23;5.10;;;15.90;99.10;;;;;;4364148;36;20042;-72
2021/08/25 18:48:16;;;;;;;23.95;4.72;;;15.90;99.30;;;;;;4345518;36;20031;-74
2021/08/25 18:52:19;;;;;;;25.85;5.15;;;15.70;99.20;;;;;;4347700;36;20095;-75
2021/08/25 18:56:21;;;;;;;22.90;5.05;;;15.70;99.40;;;;;;4366314;36;20046;-74
2021/08/25 19:00:23;;;;;;;23.77;5.15;;;15.60;99.50;;;;;;4346807;36;20030;-74
2021/08/25 19:04:25;;;;;;;;;;;15.50;99.60;;;;;;4348379;36;20125;-73
2021/08/25 19:08:26;;;;;;;22.33;5.10;;;15.80;99.50;;;;;;4364704;36;19950;-75
2021/08/25 19:12:33;;;;;;;27.35;5.57;;;15.40;99.70;;;;;;4347664;36;20082;-74
2021/08/25 19:16:37;;;;;;;30.92;5.82;;;15.40;99.70;;;;;;4348431;36;20051;-74
2021/08/25 19:20:40;;;;;;;28.17;5.32;;;15.30;99.80;;;;;;4367691;36;20066;-74
2021/08/25 19:24:42;;;;;;;28.95;4.75;;;15.30;99.80;;;;;;4348747;36;20038;-75
2021/08/25 19:28:44;;;;;;;20.73;4.88;;;15.30;99.80;;;;;;4348529;36;20038;-74
2021/08/25 19:32:46;;;;;;;33.08;6.22;;;15.30;99.80;;;;;;4366598;36;20046;-75
2021/08/25 19:36:48;;;;;;;30.67;5.07;;;15.20;99.90;;;;;;4348660;36;20031;-74
2021/08/25 19:40:50;;;;;;;;;;;15.20;99.90;;;;;;4348738;36;20030;-74
2021/08/25 19:44:52;;;;;;;28.88;5.85;;;15.20;99.50;;;;;;4366403;36;19954;-74
2021/08/25 19:48:54;;;;;;;35.20;6.28;;;15.10;99.80;;;;;;4346781;36;20030;-74
2021/08/25 19:52:56;;;;;;;28.48;4.95;;;15.10;99.90;;;;;;4348335;36;20038;-74
2021/08/25 19:56:58;;;;;;;30.48;5.38;;;15.10;99.90;;;;;;4366482;36;20597;-74
2021/08/25 20:01:00;;;;;;;31.08;5.35;;;15.10;99.90;;;;;;4349381;36;20040;-74
2021/08/25 20:05:03;;;;;;;29.73;5.60;;;15.10;99.90;;;;;;4355753;36;20053;-74
2021/08/25 20:09:04;;;;;;;24.73;4.88;;;15.00;99.90;;;;;;4347405;36;20586;-74
2021/08/25 20:13:06;;;;;;;27.42;4.82;;;15.00;99.90;;;;;;4348576;36;20458;-74
2021/08/25 20:17:09;;;;;;;;;;;15.00;99.90;;;;;;4367452;36;20138;-75
2021/08/25 20:21:11;;;;;;;31.55;5.22;;;15.00;99.70;;;;;;4347786;36;19950;-73
2021/08/25 20:25:13;;;;;;;26.38;4.60;;;14.80;99.90;;;;;;4348055;36;20130;-75
2021/08/25 20:29:17;;;;;;;26.65;5.43;;;14.80;99.90;;;;;;4365712;36;20060;-74
2021/08/25 20:33:19;;;;;;;27.27;5.03;;;14.80;99.90;;;;;;4348088;36;20352;-73
2021/08/25 20:37:23;;;;;;;27.60;4.75;;;14.80;99.90;;;;;;4346852;36;20034;-74
2021/08/25 20:41:25;;;;;;;31.38;5.22;;;14.80;99.90;;;;;;4366294;36;20039;-74
2021/08/25 20:45:27;;;;;;;29.92;6.07;;;14.70;99.90;;;;;;4348571;36;20044;-74
2021/08/25 20:49:29;;;;;;;;;;;14.70;99.90;;;;;;4347385;36;20034;-74
2021/08/25 20:53:33;;;;;;;33.57;5.23;;;14.70;99.90;;;;;;4365873;36;19953;-74
2021/08/25 20:57:35;;;;;;;36.28;5.40;;;14.60;99.90;;;;;;4346814;36;20934;-74
2021/08/25 21:01:37;;;;;;;36.88;5.57;;;14.60;99.90;;;;;;4347537;36;20572;-74
2021/08/25 21:05:40;;;;;;;27.35;5.78;;;14.60;99.90;;;;;;4366528;36;20042;-75
2021/08/25 21:09:41;;;;;;;27.50;5.38;;;14.50;99.90;;;;;;4346332;36;20650;-73
2021/08/25 21:13:43;;;;;;;26.92;4.22;;;14.60;99.90;;;;;;4345486;36;20566;-72
2021/08/25 21:17:45;;;;;;;26.80;4.15;;;14.50;99.90;;;;;;4364039;36;20038;-72
2021/08/25 21:21:47;;;;;;;;;;;14.50;99.90;;;;;;4347041;36;20473;-73
2021/08/25 21:25:51;;;;;;;33.50;5.32;;;14.50;99.90;;;;;;4346038;36;20043;-72
2021/08/25 21:29:53;;;;;;;32.92;4.70;;;14.50;99.90;;;;;;4363651;36;20034;-72
2021/08/25 21:33:55;;;;;;;33.58;4.93;;;14.50;99.90;;;;;;4345864;36;20034;-73
2021/08/25 21:37:57;;;;;;;;;;;14.50;99.90;;;;;;4346287;36;20440;-73
2021/08/25 21:41:58;;;;;;;27.60;4.47;;;14.40;99.90;;;;;;4363167;36;19957;-72
2021/08/25 21:46:00;;;;;;;44.20;7.13;;;14.40;99.90;;;;;;4344907;36;20034;-72
2021/08/25 21:50:03;;;;;;;32.95;5.43;;;14.30;99.90;;;;;;4357179;36;20038;-72
2021/08/25 21:54:05;;;;;;;33.95;5.40;;;14.40;99.90;;;;;;4345490;36;20435;-73
2021/08/25 21:58:07;;;;;;;;;;;14.40;99.90;;;;;;4345539;36;20039;-73
2021/08/25 22:02:10;;;;;;;26.92;5.22;;;14.30;99.90;;;;;;4364909;36;20814;-72
2021/08/25 22:06:12;;;;;;;26.55;6.28;;;14.30;99.90;;;;;;4345747;36;20035;-72
2021/08/25 22:10:14;;;;;;;30.85;5.68;;;14.30;99.90;;;;;;4347255;36;20716;-73
2021/08/25 22:14:16;;;;;;;32.97;5.78;;;14.30;99.90;;;;;;4364440;36;20530;-72
2021/08/25 22:18:18;;;;;;;31.13;5.47;;;14.20;99.90;;;;;;4346466;36;20095;-73
2021/08/25 22:22:20;;;;;;;;;;;14.20;99.90;;;;;;4347467;36;20038;-73
2021/08/25 22:26:22;;;;;;;;;;;14.20;99.90;;;;;;4365343;36;19938;-73
2021/08/25 22:30:24;;;;;;;27.97;5.43;;;14.20;99.90;;;;;;4346044;36;20730;-73
2021/08/25 22:34:26;;;;;;;;;;;14.20;99.90;;;;;;4347512;36;20034;-74
2021/08/25 22:38:28;;;;;;;35.53;5.88;;;14.10;99.90;;;;;;4364952;36;19989;-73
2021/08/25 22:42:30;;;;;;;38.45;6.18;;;14.10;99.90;;;;;;4346358;36;20042;-73
2021/08/25 22:46:32;;;;;;;37.97;6.07;;;14.10;99.90;;;;;;4346646;36;20089;-72
2021/08/25 22:50:34;;;;;;;33.92;5.40;;;14.10;99.90;;;;;;4364740;36;20038;-73
2021/08/25 22:54:36;;;;;;;30.73;4.82;;;14.10;99.90;;;;;;4346745;36;20145;-72
2021/08/25 22:58:42;;;;;;;35.60;5.35;;;14.10;99.90;;;;;;4346573;36;20038;-73